createdAt,value
2019-03-30T00:02:27.865Z,99.90
2019-03-30T00:05:41.577Z,99.90
2019-03-30T00:08:18.451Z,99.90
2019-03-30T00:10:52.514Z,99.90
2019-03-30T00:13:22.858Z,99.90
2019-03-30T00:15:54.873Z,99.90
2019-03-30T00:18:49.824Z,99.90
2019-03-30T00:21:55.545Z,99.90
2019-03-30T00:25:03.149Z,99.90
2019-03-30T00:27:46.075Z,99.90
2019-03-30T00:36:47.419Z,99.90
2019-03-30T00:42:33.954Z,99.90
2019-03-30T00:48:05.689Z,99.90
2019-03-30T00:50:51.444Z,99.90
2019-03-30T00:53:23.208Z,99.90
2019-03-30T00:56:13.794Z,99.90
2019-03-30T00:58:45.073Z,99.90
2019-03-30T01:01:19.287Z,99.90
2019-03-30T01:03:56.753Z,99.90
2019-03-30T01:06:39.637Z,99.90
2019-03-30T01:09:35.390Z,99.90
2019-03-30T01:12:06.239Z,99.90
2019-03-30T01:14:37.258Z,99.90
2019-03-30T01:17:10.208Z,99.90
2019-03-30T01:19:44.175Z,99.90
2019-03-30T01:22:37.940Z,99.90
2019-03-30T01:25:28.449Z,99.90
2019-03-30T01:28:00.591Z,99.90
2019-03-30T01:30:38.074Z,99.90
2019-03-30T01:33:59.951Z,99.90
2019-03-30T01:36:52.427Z,99.90
2019-03-30T01:39:33.906Z,99.90
2019-03-30T01:42:15.659Z,99.90
2019-03-30T01:44:50.388Z,99.90
2019-03-30T01:47:24.755Z,99.90
2019-03-30T01:50:21.545Z,99.90
2019-03-30T01:56:51.305Z,99.90
2019-03-30T01:59:58.893Z,99.90
2019-03-30T02:11:41.853Z,99.90
2019-03-30T02:14:10.258Z,99.90
2019-03-30T02:19:58.313Z,99.90
2019-03-30T02:22:52.934Z,99.90
2019-03-30T02:25:28.137Z,99.90
2019-03-30T02:28:02.820Z,99.90
2019-03-30T02:30:43.498Z,99.90
2019-03-30T02:34:01.339Z,99.90
2019-03-30T02:36:40.096Z,99.90
2019-03-30T02:39:13.015Z,99.90
2019-03-30T02:41:43.307Z,99.90
2019-03-30T02:44:15.733Z,99.90
2019-03-30T02:52:32.882Z,99.90
2019-03-30T02:55:03.762Z,99.90
2019-03-30T02:57:42.307Z,99.90
2019-03-30T03:00:19.309Z,99.90
2019-03-30T03:06:07.091Z,99.90
2019-03-30T03:09:17.627Z,99.90
2019-03-30T03:12:14.531Z,99.90
2019-03-30T03:15:21.927Z,99.90
2019-03-30T03:17:55.715Z,99.90
2019-03-30T03:20:27.950Z,99.90
2019-03-30T03:23:04.945Z,99.90
2019-03-30T03:25:35.676Z,99.90
2019-03-30T03:28:09.292Z,99.90
2019-03-30T03:30:51.916Z,99.90
2019-03-30T03:33:24.157Z,99.90
2019-03-30T03:36:08.084Z,99.90
2019-03-30T03:39:01.273Z,99.90
2019-03-30T03:41:33.556Z,99.90
2019-03-30T03:44:27.542Z,99.90
2019-03-30T03:46:58.636Z,99.90
2019-03-30T03:52:34.985Z,99.90
2019-03-30T03:55:08.165Z,99.90
2019-03-30T03:57:49.892Z,99.90
2019-03-30T04:00:22.188Z,99.90
2019-03-30T04:03:22.261Z,99.90
2019-03-30T04:06:19.066Z,99.90
2019-03-30T04:11:52.389Z,99.90
2019-03-30T04:15:06.064Z,99.90
2019-03-30T04:17:58.460Z,99.90
2019-03-30T04:20:34.647Z,99.90
2019-03-30T04:23:04.995Z,99.90
2019-03-30T04:25:38.636Z,99.90
2019-03-30T04:28:27.286Z,99.90
2019-03-30T04:31:03.730Z,99.90
2019-03-30T04:33:42.809Z,99.90
2019-03-30T04:36:20.051Z,99.90
2019-03-30T04:38:50.988Z,99.90
2019-03-30T04:41:25.101Z,99.90
2019-03-30T04:43:55.987Z,99.90
2019-03-30T04:46:26.255Z,99.90
2019-03-30T04:48:56.021Z,99.90
2019-03-30T04:51:25.670Z,99.90
2019-03-30T04:53:55.153Z,99.90
2019-03-30T04:56:24.878Z,99.90
2019-03-30T04:58:54.419Z,99.90
2019-03-30T05:01:24.437Z,99.90
2019-03-30T05:03:57.959Z,99.90
2019-03-30T05:06:29.395Z,99.90
2019-03-30T05:09:05.613Z,99.90
2019-03-30T05:11:35.221Z,99.90
2019-03-30T05:14:05.786Z,99.90
2019-03-30T05:16:35.394Z,99.90
2019-03-30T05:19:06.090Z,99.90
2019-03-30T05:21:35.851Z,99.90
2019-03-30T05:24:05.699Z,99.90
2019-03-30T05:26:36.666Z,99.90
2019-03-30T05:29:07.925Z,99.90
2019-03-30T05:31:40.186Z,99.90
2019-03-30T05:34:13.293Z,99.90
2019-03-30T05:36:44.010Z,99.90
2019-03-30T05:39:13.999Z,99.90
2019-03-30T05:41:44.121Z,99.90
2019-03-30T05:44:14.169Z,99.90
2019-03-30T05:46:44.666Z,99.90
2019-03-30T05:49:16.203Z,99.90
2019-03-30T05:51:46.766Z,99.90
2019-03-30T05:54:16.672Z,99.90
2019-03-30T05:56:46.620Z,99.90
2019-03-30T05:59:16.771Z,99.90
2019-03-30T06:01:48.046Z,99.90
2019-03-30T06:04:17.844Z,99.90
2019-03-30T06:06:48.813Z,99.90
2019-03-30T06:09:19.639Z,99.90
2019-03-30T06:11:52.939Z,99.90
2019-03-30T06:14:22.413Z,99.90
2019-03-30T06:16:52.688Z,99.90
2019-03-30T06:19:22.531Z,99.90
2019-03-30T06:21:52.029Z,99.90
2019-03-30T06:24:21.681Z,99.90
2019-03-30T06:26:51.419Z,99.90
2019-03-30T06:29:21.027Z,99.90
2019-03-30T06:31:50.556Z,99.90
2019-03-30T06:34:20.169Z,99.90
2019-03-30T06:36:50.407Z,99.90
2019-03-30T06:39:20.361Z,99.90
2019-03-30T06:41:50.243Z,99.90
2019-03-30T06:44:19.816Z,99.90
2019-03-30T06:46:49.346Z,99.90
2019-03-30T06:49:18.820Z,99.90
2019-03-30T06:51:48.699Z,99.90
2019-03-30T06:54:19.324Z,99.90
2019-03-30T06:56:48.941Z,99.90
2019-03-30T06:59:22.122Z,99.90
2019-03-30T07:01:52.053Z,99.90
2019-03-30T07:04:21.825Z,99.90
2019-03-30T07:06:56.874Z,99.90
2019-03-30T07:09:29.554Z,99.90
2019-03-30T07:12:03.055Z,99.90
2019-03-30T07:14:35.647Z,99.90
2019-03-30T07:17:06.698Z,99.90
2019-03-30T07:19:41.415Z,99.90
2019-03-30T07:22:11.381Z,99.90
2019-03-30T07:24:40.810Z,99.90
2019-03-30T07:27:10.264Z,99.90
2019-03-30T07:29:39.681Z,99.90
2019-03-30T07:32:10.794Z,99.90
2019-03-30T07:34:41.856Z,99.90
2019-03-30T07:37:11.486Z,99.90
2019-03-30T07:39:42.398Z,99.90
2019-03-30T07:42:16.620Z,99.90
2019-03-30T07:44:46.191Z,99.90
2019-03-30T07:47:16.768Z,99.90
2019-03-30T07:49:46.330Z,99.90
2019-03-30T07:52:16.089Z,99.90
2019-03-30T07:54:45.920Z,99.90
2019-03-30T07:57:17.373Z,99.90
2019-03-30T07:59:47.136Z,99.90
2019-03-30T08:02:16.852Z,99.90
2019-03-30T08:04:46.436Z,99.90
2019-03-30T08:07:15.942Z,99.90
2019-03-30T08:09:45.603Z,99.90
2019-03-30T08:12:15.332Z,99.90
2019-03-30T08:14:45.374Z,99.90
2019-03-30T08:17:15.014Z,99.90
2019-03-30T08:19:44.587Z,99.90
2019-03-30T08:22:14.349Z,99.90
2019-03-30T08:24:47.132Z,99.90
2019-03-30T08:27:16.550Z,99.90
2019-03-30T08:29:46.837Z,99.90
2019-03-30T08:32:16.448Z,99.90
2019-03-30T08:34:45.870Z,99.90
2019-03-30T08:37:15.587Z,99.90
2019-03-30T08:39:45.228Z,99.90
2019-03-30T08:42:15.011Z,99.90
2019-03-30T08:44:44.571Z,99.90
2019-03-30T08:47:14.129Z,99.90
2019-03-30T08:49:43.836Z,99.90
2019-03-30T08:52:13.331Z,99.90
2019-03-30T08:54:42.748Z,99.90
2019-03-30T08:57:12.206Z,99.90
2019-03-30T08:59:41.938Z,99.90
2019-03-30T09:02:11.723Z,99.90
2019-03-30T09:04:43.649Z,99.90
2019-03-30T09:07:13.215Z,99.90
2019-03-30T09:09:42.825Z,99.90
2019-03-30T09:12:12.478Z,99.90
2019-03-30T09:14:42.821Z,99.20
2019-03-30T09:17:12.323Z,99.60
2019-03-30T09:19:41.824Z,99.90
2019-03-30T09:22:11.391Z,99.90
2019-03-30T09:24:40.919Z,99.90
2019-03-30T09:27:10.937Z,99.60
2019-03-30T09:29:40.447Z,99.00
2019-03-30T09:32:14.719Z,99.10
2019-03-30T09:34:41.928Z,97.90
2019-03-30T09:37:11.393Z,97.20
2019-03-30T09:39:40.807Z,96.70
2019-03-30T09:42:10.324Z,97.00
2019-03-30T09:44:39.803Z,97.10
2019-03-30T09:47:09.474Z,96.30
2019-03-30T09:49:39.117Z,95.60
2019-03-30T09:52:08.581Z,95.60
2019-03-30T09:54:38.257Z,95.80
2019-03-30T09:57:07.765Z,95.50
2019-03-30T09:59:37.229Z,94.70
2019-03-30T10:02:06.723Z,95.30
2019-03-30T10:04:36.293Z,95.50
2019-03-30T10:07:05.933Z,95.50
2019-03-30T10:09:35.531Z,93.70
2019-03-30T10:12:08.090Z,94.60
2019-03-30T10:14:38.587Z,93.50
2019-03-30T10:17:08.102Z,93.00
2019-03-30T10:19:41.672Z,92.90
2019-03-30T10:22:11.144Z,92.30
2019-03-30T10:24:40.559Z,92.50
2019-03-30T10:27:10.192Z,93.00
2019-03-30T10:29:50.368Z,91.70
2019-03-30T10:32:19.869Z,91.00
2019-03-30T10:34:49.648Z,91.60
2019-03-30T10:37:19.290Z,91.60
2019-03-30T10:39:49.030Z,92.00
2019-03-30T10:42:19.436Z,91.30
2019-03-30T10:44:49.311Z,91.50
2019-03-30T10:47:18.821Z,90.90
2019-03-30T10:49:49.032Z,91.00
2019-03-30T10:52:18.668Z,91.50
2019-03-30T10:54:52.903Z,91.80
2019-03-30T10:57:19.654Z,91.70
2019-03-30T10:59:49.728Z,91.20
2019-03-30T11:02:20.302Z,91.50
2019-03-30T11:04:51.005Z,91.80
2019-03-30T11:07:20.736Z,91.10
2019-03-30T11:09:53.843Z,91.10
2019-03-30T11:12:23.511Z,90.80
2019-03-30T11:14:53.188Z,90.40
2019-03-30T11:17:22.844Z,90.20
2019-03-30T11:19:52.407Z,90.40
2019-03-30T11:22:25.340Z,90.20
2019-03-30T11:25:06.626Z,90.10
2019-03-30T11:27:26.103Z,90.80
2019-03-30T11:29:55.800Z,88.90
2019-03-30T11:32:25.440Z,86.60
2019-03-30T11:34:55.148Z,85.70
2019-03-30T11:37:24.641Z,86.40
2019-03-30T11:39:54.347Z,82.60
2019-03-30T11:42:23.933Z,83.90
2019-03-30T11:44:53.456Z,79.10
2019-03-30T11:47:23.310Z,78.20
2019-03-30T11:49:53.125Z,77.20
2019-03-30T11:52:24.211Z,75.20
2019-03-30T11:54:53.797Z,74.50
2019-03-30T11:57:23.400Z,75.10
2019-03-30T11:59:53.073Z,75.90
2019-03-30T12:02:28.248Z,74.60
2019-03-30T12:04:53.928Z,74.40
2019-03-30T12:07:23.464Z,74.50
2019-03-30T12:09:53.067Z,73.40
2019-03-30T12:12:22.566Z,74.60
2019-03-30T12:14:52.201Z,74.00
2019-03-30T12:17:22.185Z,74.30
2019-03-30T12:19:51.878Z,73.60
2019-03-30T12:22:21.891Z,73.90
2019-03-30T12:24:51.421Z,73.70
2019-03-30T12:27:20.956Z,73.50
2019-03-30T12:29:50.527Z,73.20
2019-03-30T12:32:24.757Z,72.90
2019-03-30T12:34:54.439Z,73.10
2019-03-30T12:37:24.157Z,73.10
2019-03-30T12:39:53.724Z,71.20
2019-03-30T12:42:23.368Z,70.30
2019-03-30T12:44:54.342Z,67.70
2019-03-30T12:47:24.143Z,67.00
2019-03-30T12:49:55.700Z,65.40
2019-03-30T12:52:26.723Z,64.60
2019-03-30T12:54:56.345Z,64.40
2019-03-30T12:57:25.905Z,64.40
2019-03-30T12:59:59.156Z,64.20
2019-03-30T13:02:27.295Z,62.00
2019-03-30T13:04:56.910Z,61.00
2019-03-30T13:07:26.411Z,60.60
2019-03-30T13:09:56.111Z,60.40
2019-03-30T13:12:25.818Z,59.90
2019-03-30T13:14:55.839Z,60.40
2019-03-30T13:17:25.307Z,60.30
2019-03-30T13:19:54.937Z,60.50
2019-03-30T13:22:24.694Z,60.50
2019-03-30T13:24:54.267Z,60.00
2019-03-30T13:27:24.208Z,59.80
2019-03-30T13:29:54.548Z,59.60
2019-03-30T13:32:24.190Z,60.00
2019-03-30T13:34:53.726Z,59.10
2019-03-30T13:37:25.390Z,58.80
2019-03-30T13:39:55.062Z,59.00
2019-03-30T13:42:24.587Z,59.20
2019-03-30T13:44:54.066Z,59.10
2019-03-30T13:47:24.735Z,59.40
2019-03-30T13:49:55.638Z,59.60
2019-03-30T13:52:25.537Z,59.30
2019-03-30T13:54:55.045Z,58.80
2019-03-30T13:57:24.565Z,59.20
2019-03-30T13:59:54.065Z,59.00
2019-03-30T14:02:23.783Z,58.20
2019-03-30T14:04:53.448Z,57.50
2019-03-30T14:07:23.029Z,57.00
2019-03-30T14:09:53.013Z,57.50
2019-03-30T14:12:22.526Z,57.80
2019-03-30T14:14:52.157Z,58.10
2019-03-30T14:17:21.708Z,57.70
2019-03-30T14:19:51.325Z,57.90
2019-03-30T14:22:20.907Z,58.20
2019-03-30T14:24:50.640Z,58.40
2019-03-30T14:27:20.386Z,58.20
2019-03-30T14:29:50.542Z,58.10
2019-03-30T14:32:20.179Z,58.60
2019-03-30T14:34:49.746Z,58.40
2019-03-30T14:37:19.777Z,58.70
2019-03-30T14:39:49.943Z,58.90
2019-03-30T14:42:19.466Z,58.90
2019-03-30T14:44:49.262Z,58.70
2019-03-30T14:47:18.750Z,59.20
2019-03-30T14:49:48.382Z,59.10
2019-03-30T14:52:17.948Z,59.00
2019-03-30T14:54:52.977Z,59.30
2019-03-30T14:57:18.752Z,59.50
2019-03-30T14:59:48.960Z,59.80
2019-03-30T15:02:18.546Z,59.80
2019-03-30T15:04:48.187Z,59.80
2019-03-30T15:07:17.706Z,60.00
2019-03-30T15:09:47.195Z,60.20
2019-03-30T15:12:19.217Z,60.20
2019-03-30T15:14:48.744Z,59.80
2019-03-30T15:17:18.161Z,59.80
2019-03-30T15:19:47.951Z,59.80
2019-03-30T15:22:17.700Z,59.60
2019-03-30T15:24:47.238Z,59.60
2019-03-30T15:27:16.830Z,59.60
2019-03-30T15:29:46.471Z,59.30
2019-03-30T15:32:16.025Z,58.80
2019-03-30T15:34:45.636Z,58.80
2019-03-30T15:37:15.535Z,58.80
2019-03-30T15:39:45.154Z,59.30
2019-03-30T15:42:14.760Z,58.80
2019-03-30T15:44:44.712Z,58.40
2019-03-30T15:47:14.321Z,58.10
2019-03-30T15:49:44.304Z,57.70
2019-03-30T15:52:14.541Z,57.50
2019-03-30T15:54:44.342Z,56.10
2019-03-30T15:57:14.598Z,56.60
2019-03-30T15:59:44.837Z,56.10
2019-03-30T16:02:14.988Z,56.40
2019-03-30T16:04:44.459Z,56.40
2019-03-30T16:07:14.132Z,56.70
2019-03-30T16:09:43.737Z,56.60
2019-03-30T16:12:13.544Z,56.70
2019-03-30T16:14:43.426Z,56.90
2019-03-30T16:17:14.808Z,57.10
2019-03-30T16:19:44.868Z,57.50
2019-03-30T16:22:14.632Z,57.50
2019-03-30T16:24:47.194Z,57.70
2019-03-30T16:27:28.087Z,57.40
2019-03-30T16:29:48.354Z,57.40
2019-03-30T16:32:18.629Z,57.60
2019-03-30T16:34:48.630Z,57.30
2019-03-30T16:37:18.605Z,57.50
2019-03-30T16:39:48.099Z,57.60
2019-03-30T16:42:17.646Z,57.70
2019-03-30T16:44:47.187Z,57.90
2019-03-30T16:47:17.027Z,57.60
2019-03-30T16:49:46.702Z,57.30
2019-03-30T16:52:16.246Z,57.40
2019-03-30T16:54:45.884Z,57.20
2019-03-30T16:57:15.514Z,57.20
2019-03-30T16:59:45.152Z,56.80
2019-03-30T17:02:14.952Z,57.20
2019-03-30T17:04:44.677Z,57.10
2019-03-30T17:07:14.346Z,57.30
2019-03-30T17:09:43.876Z,57.60
2019-03-30T17:12:15.274Z,58.40
2019-03-30T17:14:44.711Z,59.40
2019-03-30T17:17:14.592Z,58.90
2019-03-30T17:19:44.203Z,58.60
2019-03-30T17:22:13.823Z,58.50
2019-03-30T17:24:43.536Z,58.90
2019-03-30T17:27:13.268Z,59.80
2019-03-30T17:29:47.888Z,60.00
2019-03-30T17:32:17.461Z,59.40
2019-03-30T17:34:47.477Z,59.60
2019-03-30T17:37:20.839Z,60.30
2019-03-30T17:39:53.050Z,61.30
2019-03-30T17:42:22.812Z,61.30
2019-03-30T17:44:52.479Z,61.40
2019-03-30T17:47:22.210Z,61.90
2019-03-30T17:49:52.209Z,60.50
2019-03-30T17:52:21.866Z,61.20
2019-03-30T17:54:53.885Z,61.00
2019-03-30T17:57:24.164Z,61.30
2019-03-30T17:59:54.000Z,61.30
2019-03-30T18:02:24.089Z,61.20
2019-03-30T18:04:53.821Z,62.00
2019-03-30T18:07:23.674Z,61.90
2019-03-30T18:09:53.352Z,62.60
2019-03-30T18:12:23.422Z,62.50
2019-03-30T18:14:53.685Z,63.20
2019-03-30T18:17:23.299Z,62.90
2019-03-30T18:19:52.939Z,63.50
2019-03-30T18:22:22.626Z,63.30
2019-03-30T18:24:52.312Z,63.20
2019-03-30T18:27:22.150Z,63.20
2019-03-30T18:29:51.816Z,64.10
2019-03-30T18:32:21.887Z,65.30
2019-03-30T18:34:51.946Z,65.30
2019-03-30T18:37:21.969Z,65.80
2019-03-30T18:39:51.847Z,66.00
2019-03-30T18:42:21.584Z,65.70
2019-03-30T18:44:56.435Z,65.90
2019-03-30T18:47:27.843Z,65.90
2019-03-30T18:49:57.425Z,66.50
2019-03-30T18:52:30.576Z,66.20
2019-03-30T18:55:01.005Z,66.20
2019-03-30T18:57:31.908Z,66.50
2019-03-30T19:00:02.451Z,66.30
2019-03-30T19:02:32.384Z,66.40
2019-03-30T19:05:02.090Z,65.60
2019-03-30T19:07:32.528Z,65.50
2019-03-30T19:10:02.991Z,65.50
2019-03-30T19:12:33.333Z,65.80
2019-03-30T19:15:03.596Z,66.00
2019-03-30T19:17:36.761Z,66.40
2019-03-30T19:20:07.297Z,67.30
2019-03-30T19:22:37.128Z,66.60
2019-03-30T19:25:07.430Z,66.60
2019-03-30T19:27:40.211Z,66.40
2019-03-30T19:30:10.617Z,66.10
2019-03-30T19:32:41.417Z,66.10
2019-03-30T19:35:14.918Z,65.90
2019-03-30T19:37:44.896Z,66.10
2019-03-30T19:40:14.663Z,66.10
2019-03-30T19:42:44.469Z,66.50
2019-03-30T19:45:15.851Z,66.60
2019-03-30T19:47:52.801Z,66.90
2019-03-30T19:50:22.431Z,66.90
2019-03-30T19:52:52.083Z,66.80
2019-03-30T19:55:21.705Z,66.90
2019-03-30T19:57:51.690Z,66.80
2019-03-30T20:00:21.587Z,66.90
2019-03-30T20:02:51.128Z,67.00
2019-03-30T20:05:20.847Z,67.00
2019-03-30T20:07:50.474Z,67.10
2019-03-30T20:10:20.558Z,67.20
2019-03-30T20:12:50.369Z,67.40
2019-03-30T20:15:20.421Z,67.50
2019-03-30T20:17:49.908Z,67.40
2019-03-30T20:20:19.697Z,68.40
2019-03-30T20:22:49.356Z,67.70
2019-03-30T20:25:19.747Z,67.70
2019-03-30T20:27:49.657Z,67.70
2019-03-30T20:30:19.405Z,67.80
2019-03-30T20:32:49.204Z,67.90
2019-03-30T20:35:19.177Z,67.90
2019-03-30T20:37:48.808Z,68.10
2019-03-30T20:40:19.627Z,68.20
2019-03-30T20:42:49.359Z,68.70
2019-03-30T20:45:19.223Z,68.70
2019-03-30T20:47:50.289Z,68.60
2019-03-30T20:50:19.929Z,68.70
2019-03-30T20:52:49.671Z,68.70
2019-03-30T20:55:19.257Z,68.80
2019-03-30T20:57:48.851Z,68.70
2019-03-30T21:00:20.274Z,68.70
2019-03-30T21:02:49.990Z,68.70
2019-03-30T21:05:19.670Z,68.80
2019-03-30T21:07:49.239Z,68.70
2019-03-30T21:10:20.246Z,68.90
2019-03-30T21:12:52.946Z,68.70
2019-03-30T21:15:22.561Z,68.70
2019-03-30T21:17:52.375Z,68.60
2019-03-30T21:20:21.977Z,68.60
2019-03-30T21:22:51.658Z,68.30
2019-03-30T21:25:21.242Z,68.40
2019-03-30T21:27:50.815Z,68.20
2019-03-30T21:30:20.586Z,68.20
2019-03-30T21:32:50.428Z,68.20
2019-03-30T21:35:20.023Z,68.10
2019-03-30T21:37:49.652Z,68.10
2019-03-30T21:40:19.486Z,68.10
2019-03-30T21:42:49.009Z,68.00
2019-03-30T21:45:18.823Z,68.10
2019-03-30T21:47:48.441Z,68.00
2019-03-30T21:50:18.114Z,68.10
2019-03-30T21:52:47.665Z,68.70
2019-03-30T21:55:17.321Z,68.60
2019-03-30T21:57:46.929Z,68.60
2019-03-30T22:00:30.500Z,68.60
2019-03-30T22:03:00.260Z,68.50
2019-03-30T22:05:30.033Z,68.60
2019-03-30T22:07:59.977Z,69.20
2019-03-30T22:10:30.100Z,68.50
2019-03-30T22:12:59.995Z,68.40
2019-03-30T22:15:30.271Z,68.80
2019-03-30T22:17:59.947Z,69.00
2019-03-30T22:20:29.397Z,69.10
2019-03-30T22:22:59.029Z,69.30
2019-03-30T22:25:28.585Z,69.70
2019-03-30T22:27:58.685Z,69.80
2019-03-30T22:30:29.680Z,69.60
2019-03-30T22:32:59.155Z,69.80
2019-03-30T22:35:28.753Z,70.00
2019-03-30T22:37:58.283Z,70.00
2019-03-30T22:40:27.974Z,70.20
2019-03-30T22:42:57.830Z,70.30
2019-03-30T22:45:27.418Z,70.60
2019-03-30T22:47:57.245Z,70.40
2019-03-30T22:50:26.911Z,70.30
2019-03-30T22:52:56.631Z,70.20
2019-03-30T22:55:26.239Z,70.40
2019-03-30T22:57:55.835Z,70.50
2019-03-30T23:00:43.431Z,70.50
2019-03-30T23:03:13.682Z,70.60
2019-03-30T23:05:43.295Z,70.50
2019-03-30T23:08:13.095Z,70.60
2019-03-30T23:10:42.869Z,70.70
2019-03-30T23:13:13.884Z,71.10
2019-03-30T23:15:48.604Z,70.90
2019-03-30T23:18:33.925Z,71.10
2019-03-30T23:21:03.929Z,71.30
2019-03-30T23:23:33.631Z,71.30
2019-03-30T23:26:03.266Z,71.40
2019-03-30T23:28:33.101Z,71.80
2019-03-30T23:31:03.146Z,71.70
2019-03-30T23:33:32.957Z,71.90
2019-03-30T23:36:02.750Z,71.90
2019-03-30T23:38:32.436Z,71.80
2019-03-30T23:41:02.603Z,71.90
2019-03-30T23:43:32.355Z,72.00
2019-03-30T23:46:02.929Z,72.00
2019-03-30T23:48:32.949Z,72.10
2019-03-30T23:51:02.513Z,72.20
2019-03-30T23:53:32.110Z,72.30
2019-03-30T23:56:01.614Z,72.40
2019-03-30T23:58:31.219Z,72.40
